sensor_id;sensor_type;location;lat;lon;timestamp;P1;durP1;ratioP1;P2;durP2;ratioP2
33738;SDS011;20063;51.730;11.110;2023-04-07T00:01:22;18.88;;;11.45;;
33738;SDS011;20063;51.730;11.110;2023-04-07T00:03:48;16.90;;;10.35;;
33738;SDS011;20063;51.730;11.110;2023-04-07T00:06:13;22.67;;;12.20;;
33738;SDS011;20063;51.730;11.110;2023-04-07T00:08:39;17.10;;;10.68;;
33738;SDS011;20063;51.730;11.110;2023-04-07T00:11:05;19.00;;;11.07;;
33738;SDS011;20063;51.730;11.110;2023-04-07T00:13:32;19.83;;;11.40;;
33738;SDS011;20063;51.730;11.110;2023-04-07T00:15:58;17.63;;;10.95;;
33738;SDS011;20063;51.730;11.110;2023-04-07T00:18:24;20.70;;;11.70;;
33738;SDS011;20063;51.730;11.110;2023-04-07T00:20:55;19.15;;;10.88;;
33738;SDS011;20063;51.730;11.110;2023-04-07T00:23:23;16.55;;;11.02;;
33738;SDS011;20063;51.730;11.110;2023-04-07T00:25:49;21.42;;;11.00;;
33738;SDS011;20063;51.730;11.110;2023-04-07T00:28:18;25.80;;;11.55;;
33738;SDS011;20063;51.730;11.110;2023-04-07T00:30:43;20.35;;;10.63;;
33738;SDS011;20063;51.730;11.110;2023-04-07T00:33:09;15.50;;;10.00;;
33738;SDS011;20063;51.730;11.110;2023-04-07T00:35:36;15.40;;;9.82;;
33738;SDS011;20063;51.730;11.110;2023-04-07T00:38:01;21.73;;;10.68;;
33738;SDS011;20063;51.730;11.110;2023-04-07T00:40:27;20.42;;;9.70;;
33738;SDS011;20063;51.730;11.110;2023-04-07T00:42:53;21.95;;;11.27;;
33738;SDS011;20063;51.730;11.110;2023-04-07T00:45:18;16.48;;;10.32;;
33738;SDS011;20063;51.730;11.110;2023-04-07T00:47:47;15.77;;;9.82;;
33738;SDS011;20063;51.730;11.110;2023-04-07T00:50:12;19.17;;;10.18;;
33738;SDS011;20063;51.730;11.110;2023-04-07T00:52:38;18.60;;;10.80;;
33738;SDS011;20063;51.730;11.110;2023-04-07T00:55:04;13.45;;;9.55;;
33738;SDS011;20063;51.730;11.110;2023-04-07T00:57:30;22.30;;;10.70;;
33738;SDS011;20063;51.730;11.110;2023-04-07T00:59:55;21.17;;;11.50;;
33738;SDS011;20063;51.730;11.110;2023-04-07T01:02:23;21.85;;;10.85;;
33738;SDS011;20063;51.730;11.110;2023-04-07T01:04:55;17.80;;;9.85;;
33738;SDS011;20063;51.730;11.110;2023-04-07T01:08:03;14.80;;;9.70;;
33738;SDS011;20063;51.730;11.110;2023-04-07T01:10:42;14.98;;;10.07;;
33738;SDS011;20063;51.730;11.110;2023-04-07T01:15:50;20.02;;;10.75;;
33738;SDS011;20063;51.730;11.110;2023-04-07T01:18:20;19.30;;;9.15;;
33738;SDS011;20063;51.730;11.110;2023-04-07T01:20:51;16.63;;;9.68;;
33738;SDS011;20063;51.730;11.110;2023-04-07T01:26:19;18.05;;;8.80;;
33738;SDS011;20063;51.730;11.110;2023-04-07T01:28:54;18.50;;;9.85;;
33738;SDS011;20063;51.730;11.110;2023-04-07T01:31:39;14.13;;;9.40;;
33738;SDS011;20063;51.730;11.110;2023-04-07T01:34:08;20.13;;;9.90;;
33738;SDS011;20063;51.730;11.110;2023-04-07T01:36:35;15.43;;;8.68;;
33738;SDS011;20063;51.730;11.110;2023-04-07T01:39:00;15.82;;;10.38;;
33738;SDS011;20063;51.730;11.110;2023-04-07T01:41:27;16.90;;;10.43;;
33738;SDS011;20063;51.730;11.110;2023-04-07T01:43:54;18.23;;;10.50;;
33738;SDS011;20063;51.730;11.110;2023-04-07T01:46:20;18.02;;;10.73;;
33738;SDS011;20063;51.730;11.110;2023-04-07T01:48:47;17.33;;;10.93;;
33738;SDS011;20063;51.730;11.110;2023-04-07T01:51:13;16.92;;;11.00;;
33738;SDS011;20063;51.730;11.110;2023-04-07T01:53:42;17.23;;;11.57;;
33738;SDS011;20063;51.730;11.110;2023-04-07T01:56:09;17.67;;;10.77;;
33738;SDS011;20063;51.730;11.110;2023-04-07T01:58:36;18.60;;;10.77;;
33738;SDS011;20063;51.730;11.110;2023-04-07T02:01:02;17.17;;;10.68;;
33738;SDS011;20063;51.730;11.110;2023-04-07T02:03:35;19.70;;;11.45;;
33738;SDS011;20063;51.730;11.110;2023-04-07T02:06:08;18.95;;;12.27;;
33738;SDS011;20063;51.730;11.110;2023-04-07T02:08:38;21.85;;;11.75;;
33738;SDS011;20063;51.730;11.110;2023-04-07T02:11:09;18.50;;;11.32;;
33738;SDS011;20063;51.730;11.110;2023-04-07T02:13:37;18.35;;;11.45;;
33738;SDS011;20063;51.730;11.110;2023-04-07T02:16:05;27.13;;;12.82;;
33738;SDS011;20063;51.730;11.110;2023-04-07T02:18:32;20.08;;;11.90;;
33738;SDS011;20063;51.730;11.110;2023-04-07T02:20:59;21.42;;;12.02;;
33738;SDS011;20063;51.730;11.110;2023-04-07T02:23:26;18.52;;;11.75;;
33738;SDS011;20063;51.730;11.110;2023-04-07T02:25:54;20.98;;;12.00;;
33738;SDS011;20063;51.730;11.110;2023-04-07T02:28:22;23.10;;;13.52;;
33738;SDS011;20063;51.730;11.110;2023-04-07T02:30:48;18.80;;;12.35;;
33738;SDS011;20063;51.730;11.110;2023-04-07T02:33:13;19.73;;;12.15;;
33738;SDS011;20063;51.730;11.110;2023-04-07T02:35:39;16.42;;;11.18;;
33738;SDS011;20063;51.730;11.110;2023-04-07T02:38:05;18.60;;;12.20;;
33738;SDS011;20063;51.730;11.110;2023-04-07T02:40:30;19.00;;;12.73;;
33738;SDS011;20063;51.730;11.110;2023-04-07T02:42:56;20.08;;;13.10;;
33738;SDS011;20063;51.730;11.110;2023-04-07T02:45:21;17.52;;;11.95;;
33738;SDS011;20063;51.730;11.110;2023-04-07T02:47:47;17.33;;;11.57;;
33738;SDS011;20063;51.730;11.110;2023-04-07T02:50:13;22.38;;;13.40;;
33738;SDS011;20063;51.730;11.110;2023-04-07T02:52:39;17.48;;;12.07;;
33738;SDS011;20063;51.730;11.110;2023-04-07T02:55:08;21.35;;;13.63;;
33738;SDS011;20063;51.730;11.110;2023-04-07T02:57:33;21.63;;;13.15;;
33738;SDS011;20063;51.730;11.110;2023-04-07T02:59:59;20.80;;;12.70;;
33738;SDS011;20063;51.730;11.110;2023-04-07T03:02:25;27.30;;;14.10;;
33738;SDS011;20063;51.730;11.110;2023-04-07T03:04:51;19.38;;;11.88;;
33738;SDS011;20063;51.730;11.110;2023-04-07T03:07:17;21.02;;;12.32;;
33738;SDS011;20063;51.730;11.110;2023-04-07T03:09:42;20.80;;;13.52;;
33738;SDS011;20063;51.730;11.110;2023-04-07T03:12:08;22.73;;;13.75;;
33738;SDS011;20063;51.730;11.110;2023-04-07T03:14:35;22.40;;;13.25;;
33738;SDS011;20063;51.730;11.110;2023-04-07T03:17:01;23.52;;;13.43;;
33738;SDS011;20063;51.730;11.110;2023-04-07T03:19:27;21.17;;;13.50;;
33738;SDS011;20063;51.730;11.110;2023-04-07T03:21:53;22.67;;;13.98;;
33738;SDS011;20063;51.730;11.110;2023-04-07T03:24:25;24.42;;;14.00;;
33738;SDS011;20063;51.730;11.110;2023-04-07T03:26:51;24.30;;;14.00;;
33738;SDS011;20063;51.730;11.110;2023-04-07T03:29:16;21.17;;;13.48;;
33738;SDS011;20063;51.730;11.110;2023-04-07T03:31:43;23.13;;;14.77;;
33738;SDS011;20063;51.730;11.110;2023-04-07T03:34:08;23.38;;;13.82;;
33738;SDS011;20063;51.730;11.110;2023-04-07T03:36:34;19.83;;;13.40;;
33738;SDS011;20063;51.730;11.110;2023-04-07T03:39:00;26.42;;;13.75;;
33738;SDS011;20063;51.730;11.110;2023-04-07T03:41:25;24.80;;;14.77;;
33738;SDS011;20063;51.730;11.110;2023-04-07T03:43:51;27.15;;;13.27;;
33738;SDS011;20063;51.730;11.110;2023-04-07T03:46:20;18.73;;;11.43;;
33738;SDS011;20063;51.730;11.110;2023-04-07T03:48:46;27.27;;;14.98;;
33738;SDS011;20063;51.730;11.110;2023-04-07T03:51:11;20.48;;;13.43;;
33738;SDS011;20063;51.730;11.110;2023-04-07T03:53:37;20.95;;;12.85;;
33738;SDS011;20063;51.730;11.110;2023-04-07T03:56:03;24.10;;;14.73;;
33738;SDS011;20063;51.730;11.110;2023-04-07T03:58:28;25.85;;;14.27;;
33738;SDS011;20063;51.730;11.110;2023-04-07T04:00:55;30.00;;;14.32;;
33738;SDS011;20063;51.730;11.110;2023-04-07T04:03:21;21.73;;;13.93;;
33738;SDS011;20063;51.730;11.110;2023-04-07T04:05:47;26.27;;;14.60;;
33738;SDS011;20063;51.730;11.110;2023-04-07T04:08:12;23.88;;;14.35;;
33738;SDS011;20063;51.730;11.110;2023-04-07T04:10:38;29.38;;;15.95;;
33738;SDS011;20063;51.730;11.110;2023-04-07T04:13:04;17.75;;;13.18;;
33738;SDS011;20063;51.730;11.110;2023-04-07T04:15:31;19.85;;;14.05;;
33738;SDS011;20063;51.730;11.110;2023-04-07T04:17:57;24.35;;;14.93;;
33738;SDS011;20063;51.730;11.110;2023-04-07T04:20:23;25.95;;;15.35;;
33738;SDS011;20063;51.730;11.110;2023-04-07T04:22:49;28.98;;;15.32;;
33738;SDS011;20063;51.730;11.110;2023-04-07T04:25:16;24.23;;;15.05;;
33738;SDS011;20063;51.730;11.110;2023-04-07T04:27:42;29.52;;;15.77;;
33738;SDS011;20063;51.730;11.110;2023-04-07T04:30:08;28.38;;;16.20;;
33738;SDS011;20063;51.730;11.110;2023-04-07T04:32:33;24.25;;;15.48;;
33738;SDS011;20063;51.730;11.110;2023-04-07T04:34:59;24.35;;;15.02;;
33738;SDS011;20063;51.730;11.110;2023-04-07T04:37:28;22.52;;;15.23;;
33738;SDS011;20063;51.730;11.110;2023-04-07T04:39:54;23.17;;;15.27;;
33738;SDS011;20063;51.730;11.110;2023-04-07T04:42:20;24.45;;;15.48;;
33738;SDS011;20063;51.730;11.110;2023-04-07T04:44:45;31.17;;;17.15;;
33738;SDS011;20063;51.730;11.110;2023-04-07T04:47:11;30.02;;;16.75;;
33738;SDS011;20063;51.730;11.110;2023-04-07T04:49:36;29.83;;;16.50;;
33738;SDS011;20063;51.730;11.110;2023-04-07T04:52:02;23.45;;;14.90;;
33738;SDS011;20063;51.730;11.110;2023-04-07T04:54:28;24.88;;;15.35;;
33738;SDS011;20063;51.730;11.110;2023-04-07T04:56:53;29.10;;;17.50;;
33738;SDS011;20063;51.730;11.110;2023-04-07T04:59:21;26.92;;;17.25;;
33738;SDS011;20063;51.730;11.110;2023-04-07T05:01:47;27.48;;;17.30;;
33738;SDS011;20063;51.730;11.110;2023-04-07T05:04:13;29.17;;;15.43;;
33738;SDS011;20063;51.730;11.110;2023-04-07T05:06:38;23.63;;;16.02;;
33738;SDS011;20063;51.730;11.110;2023-04-07T05:09:04;22.05;;;16.27;;
33738;SDS011;20063;51.730;11.110;2023-04-07T05:11:29;34.67;;;18.65;;
33738;SDS011;20063;51.730;11.110;2023-04-07T05:13:55;26.75;;;16.67;;
33738;SDS011;20063;51.730;11.110;2023-04-07T05:16:21;22.63;;;15.68;;
33738;SDS011;20063;51.730;11.110;2023-04-07T05:18:46;24.15;;;15.90;;
33738;SDS011;20063;51.730;11.110;2023-04-07T05:21:12;27.63;;;16.45;;
33738;SDS011;20063;51.730;11.110;2023-04-07T05:23:37;27.77;;;17.98;;
33738;SDS011;20063;51.730;11.110;2023-04-07T05:26:03;28.02;;;16.58;;
33738;SDS011;20063;51.730;11.110;2023-04-07T05:28:28;24.65;;;16.13;;
33738;SDS011;20063;51.730;11.110;2023-04-07T05:30:54;25.38;;;15.50;;
33738;SDS011;20063;51.730;11.110;2023-04-07T05:33:21;31.95;;;17.55;;
33738;SDS011;20063;51.730;11.110;2023-04-07T05:35:46;26.38;;;16.60;;
33738;SDS011;20063;51.730;11.110;2023-04-07T05:38:12;27.05;;;17.73;;
33738;SDS011;20063;51.730;11.110;2023-04-07T05:40:41;29.13;;;17.42;;
33738;SDS011;20063;51.730;11.110;2023-04-07T05:43:07;29.00;;;18.38;;
33738;SDS011;20063;51.730;11.110;2023-04-07T05:45:32;28.33;;;17.60;;
33738;SDS011;20063;51.730;11.110;2023-04-07T05:47:58;32.75;;;17.27;;
33738;SDS011;20063;51.730;11.110;2023-04-07T05:50:23;31.80;;;18.35;;
33738;SDS011;20063;51.730;11.110;2023-04-07T05:52:49;24.23;;;15.90;;
33738;SDS011;20063;51.730;11.110;2023-04-07T05:55:16;27.05;;;16.13;;
33738;SDS011;20063;51.730;11.110;2023-04-07T05:57:42;31.38;;;16.08;;
33738;SDS011;20063;51.730;11.110;2023-04-07T06:00:08;22.77;;;15.68;;
33738;SDS011;20063;51.730;11.110;2023-04-07T06:02:34;25.27;;;15.50;;
33738;SDS011;20063;51.730;11.110;2023-04-07T06:05:01;27.92;;;17.65;;
33738;SDS011;20063;51.730;11.110;2023-04-07T06:07:26;28.90;;;18.25;;
33738;SDS011;20063;51.730;11.110;2023-04-07T06:09:55;27.83;;;15.73;;
33738;SDS011;20063;51.730;11.110;2023-04-07T06:12:20;28.75;;;18.42;;
33738;SDS011;20063;51.730;11.110;2023-04-07T06:14:52;32.35;;;18.10;;
33738;SDS011;20063;51.730;11.110;2023-04-07T06:17:19;25.92;;;16.77;;
33738;SDS011;20063;51.730;11.110;2023-04-07T06:19:47;27.50;;;16.90;;
33738;SDS011;20063;51.730;11.110;2023-04-07T06:22:13;28.27;;;17.17;;
33738;SDS011;20063;51.730;11.110;2023-04-07T06:24:39;26.88;;;16.52;;
33738;SDS011;20063;51.730;11.110;2023-04-07T06:27:05;28.85;;;18.08;;
33738;SDS011;20063;51.730;11.110;2023-04-07T06:29:34;24.52;;;16.70;;
33738;SDS011;20063;51.730;11.110;2023-04-07T06:32:02;29.83;;;17.67;;
33738;SDS011;20063;51.730;11.110;2023-04-07T06:34:27;24.83;;;15.93;;
33738;SDS011;20063;51.730;11.110;2023-04-07T06:36:53;27.10;;;17.40;;
33738;SDS011;20063;51.730;11.110;2023-04-07T06:39:19;29.45;;;17.20;;
33738;SDS011;20063;51.730;11.110;2023-04-07T06:41:45;28.77;;;14.93;;
33738;SDS011;20063;51.730;11.110;2023-04-07T06:44:11;22.88;;;15.75;;
33738;SDS011;20063;51.730;11.110;2023-04-07T06:46:37;22.83;;;15.45;;
33738;SDS011;20063;51.730;11.110;2023-04-07T06:49:03;22.55;;;14.38;;
33738;SDS011;20063;51.730;11.110;2023-04-07T06:51:29;27.15;;;14.98;;
33738;SDS011;20063;51.730;11.110;2023-04-07T06:53:55;30.10;;;17.20;;
33738;SDS011;20063;51.730;11.110;2023-04-07T06:56:21;32.65;;;18.83;;
33738;SDS011;20063;51.730;11.110;2023-04-07T06:58:47;27.58;;;18.20;;
33738;SDS011;20063;51.730;11.110;2023-04-07T07:01:13;34.13;;;21.08;;
33738;SDS011;20063;51.730;11.110;2023-04-07T07:03:38;37.53;;;20.88;;
33738;SDS011;20063;51.730;11.110;2023-04-07T07:06:04;34.75;;;19.38;;
33738;SDS011;20063;51.730;11.110;2023-04-07T07:08:32;32.60;;;18.65;;
33738;SDS011;20063;51.730;11.110;2023-04-07T07:10:58;39.35;;;22.90;;
33738;SDS011;20063;51.730;11.110;2023-04-07T07:13:24;47.90;;;25.15;;
33738;SDS011;20063;51.730;11.110;2023-04-07T07:15:52;40.17;;;24.45;;
33738;SDS011;20063;51.730;11.110;2023-04-07T07:18:18;43.10;;;25.67;;
33738;SDS011;20063;51.730;11.110;2023-04-07T07:20:43;31.85;;;20.30;;
33738;SDS011;20063;51.730;11.110;2023-04-07T07:23:09;39.22;;;23.30;;
33738;SDS011;20063;51.730;11.110;2023-04-07T07:25:35;43.08;;;24.55;;
33738;SDS011;20063;51.730;11.110;2023-04-07T07:28:00;42.28;;;25.48;;
33738;SDS011;20063;51.730;11.110;2023-04-07T07:30:26;42.85;;;27.08;;
33738;SDS011;20063;51.730;11.110;2023-04-07T07:32:52;46.58;;;26.73;;
33738;SDS011;20063;51.730;11.110;2023-04-07T07:35:18;39.45;;;25.50;;
33738;SDS011;20063;51.730;11.110;2023-04-07T07:37:46;42.83;;;25.55;;
33738;SDS011;20063;51.730;11.110;2023-04-07T07:40:11;39.20;;;23.45;;
33738;SDS011;20063;51.730;11.110;2023-04-07T07:42:37;39.47;;;24.10;;
33738;SDS011;20063;51.730;11.110;2023-04-07T07:45:03;41.13;;;23.77;;
33738;SDS011;20063;51.730;11.110;2023-04-07T07:47:29;42.00;;;23.83;;
33738;SDS011;20063;51.730;11.110;2023-04-07T07:49:55;40.47;;;23.52;;
33738;SDS011;20063;51.730;11.110;2023-04-07T07:52:21;35.13;;;22.95;;
33738;SDS011;20063;51.730;11.110;2023-04-07T07:54:48;44.25;;;24.38;;
33738;SDS011;20063;51.730;11.110;2023-04-07T07:57:14;43.17;;;24.23;;
33738;SDS011;20063;51.730;11.110;2023-04-07T07:59:40;35.08;;;22.10;;
33738;SDS011;20063;51.730;11.110;2023-04-07T08:02:06;39.88;;;23.17;;
33738;SDS011;20063;51.730;11.110;2023-04-07T08:04:32;39.78;;;22.95;;
33738;SDS011;20063;51.730;11.110;2023-04-07T08:06:58;35.15;;;22.35;;
33738;SDS011;20063;51.730;11.110;2023-04-07T08:09:23;34.75;;;22.48;;
33738;SDS011;20063;51.730;11.110;2023-04-07T08:11:49;33.22;;;22.75;;
33738;SDS011;20063;51.730;11.110;2023-04-07T08:14:16;34.28;;;21.38;;
33738;SDS011;20063;51.730;11.110;2023-04-07T08:16:42;27.77;;;18.52;;
33738;SDS011;20063;51.730;11.110;2023-04-07T08:19:08;32.08;;;20.20;;
33738;SDS011;20063;51.730;11.110;2023-04-07T08:21:34;27.05;;;19.00;;
33738;SDS011;20063;51.730;11.110;2023-04-07T08:24:00;28.65;;;19.40;;
33738;SDS011;20063;51.730;11.110;2023-04-07T08:26:33;39.85;;;20.15;;
33738;SDS011;20063;51.730;11.110;2023-04-07T08:28:59;33.13;;;18.75;;
33738;SDS011;20063;51.730;11.110;2023-04-07T08:31:25;30.83;;;18.20;;
33738;SDS011;20063;51.730;11.110;2023-04-07T08:33:50;28.90;;;17.35;;
33738;SDS011;20063;51.730;11.110;2023-04-07T08:36:22;26.15;;;16.02;;
33738;SDS011;20063;51.730;11.110;2023-04-07T08:38:51;21.33;;;14.18;;
33738;SDS011;20063;51.730;11.110;2023-04-07T08:41:19;26.75;;;16.85;;
33738;SDS011;20063;51.730;11.110;2023-04-07T08:43:53;29.40;;;14.77;;
33738;SDS011;20063;51.730;11.110;2023-04-07T08:46:21;25.60;;;14.88;;
33738;SDS011;20063;51.730;11.110;2023-04-07T08:48:48;29.17;;;16.40;;
33738;SDS011;20063;51.730;11.110;2023-04-07T08:51:19;22.63;;;14.23;;
33738;SDS011;20063;51.730;11.110;2023-04-07T08:53:57;26.40;;;14.82;;
33738;SDS011;20063;51.730;11.110;2023-04-07T08:56:31;22.75;;;13.00;;
33738;SDS011;20063;51.730;11.110;2023-04-07T08:58:58;27.23;;;13.38;;
33738;SDS011;20063;51.730;11.110;2023-04-07T09:01:26;23.13;;;13.65;;
33738;SDS011;20063;51.730;11.110;2023-04-07T09:03:53;24.92;;;12.90;;
33738;SDS011;20063;51.730;11.110;2023-04-07T09:06:21;22.80;;;12.10;;
33738;SDS011;20063;51.730;11.110;2023-04-07T09:08:47;24.05;;;12.48;;
33738;SDS011;20063;51.730;11.110;2023-04-07T09:11:12;21.08;;;13.48;;
33738;SDS011;20063;51.730;11.110;2023-04-07T09:13:38;18.73;;;11.10;;
33738;SDS011;20063;51.730;11.110;2023-04-07T09:16:03;23.63;;;12.30;;
33738;SDS011;20063;51.730;11.110;2023-04-07T09:18:30;21.75;;;12.90;;
33738;SDS011;20063;51.730;11.110;2023-04-07T09:23:56;20.10;;;11.65;;
33738;SDS011;20063;51.730;11.110;2023-04-07T09:26:24;26.40;;;13.50;;
33738;SDS011;20063;51.730;11.110;2023-04-07T09:34:25;20.35;;;12.07;;
33738;SDS011;20063;51.730;11.110;2023-04-07T09:36:56;25.75;;;12.35;;
33738;SDS011;20063;51.730;11.110;2023-04-07T09:39:22;23.52;;;12.40;;
33738;SDS011;20063;51.730;11.110;2023-04-07T09:41:48;21.20;;;12.27;;
33738;SDS011;20063;51.730;11.110;2023-04-07T09:44:14;21.05;;;12.30;;
33738;SDS011;20063;51.730;11.110;2023-04-07T09:47:14;20.10;;;10.85;;
33738;SDS011;20063;51.730;11.110;2023-04-07T09:49:48;18.70;;;10.88;;
33738;SDS011;20063;51.730;11.110;2023-04-07T09:52:18;18.10;;;10.88;;
33738;SDS011;20063;51.730;11.110;2023-04-07T09:54:47;23.42;;;10.60;;
33738;SDS011;20063;51.730;11.110;2023-04-07T09:57:13;19.83;;;11.25;;
33738;SDS011;20063;51.730;11.110;2023-04-07T09:59:41;19.25;;;10.30;;
33738;SDS011;20063;51.730;11.110;2023-04-07T10:02:08;17.70;;;10.35;;
33738;SDS011;20063;51.730;11.110;2023-04-07T10:04:38;22.13;;;10.50;;
33738;SDS011;20063;51.730;11.110;2023-04-07T10:07:05;16.25;;;9.98;;
33738;SDS011;20063;51.730;11.110;2023-04-07T10:09:31;21.52;;;11.15;;
33738;SDS011;20063;51.730;11.110;2023-04-07T10:11:57;21.90;;;11.35;;
33738;SDS011;20063;51.730;11.110;2023-04-07T10:14:27;20.58;;;10.63;;
33738;SDS011;20063;51.730;11.110;2023-04-07T10:16:55;19.08;;;9.90;;
33738;SDS011;20063;51.730;11.110;2023-04-07T10:19:21;23.42;;;11.68;;
33738;SDS011;20063;51.730;11.110;2023-04-07T10:21:50;21.27;;;11.65;;
33738;SDS011;20063;51.730;11.110;2023-04-07T10:24:41;22.10;;;10.18;;
33738;SDS011;20063;51.730;11.110;2023-04-07T10:27:18;17.83;;;10.70;;
33738;SDS011;20063;51.730;11.110;2023-04-07T10:29:49;22.40;;;10.70;;
33738;SDS011;20063;51.730;11.110;2023-04-07T10:32:17;17.95;;;9.80;;
33738;SDS011;20063;51.730;11.110;2023-04-07T10:37:20;18.38;;;10.05;;
33738;SDS011;20063;51.730;11.110;2023-04-07T10:39:50;17.00;;;10.30;;
33738;SDS011;20063;51.730;11.110;2023-04-07T10:45:03;21.80;;;10.20;;
33738;SDS011;20063;51.730;11.110;2023-04-07T10:47:33;20.30;;;10.63;;
33738;SDS011;20063;51.730;11.110;2023-04-07T10:50:19;21.02;;;9.18;;
33738;SDS011;20063;51.730;11.110;2023-04-07T10:53:08;19.63;;;9.15;;
33738;SDS011;20063;51.730;11.110;2023-04-07T10:55:43;16.90;;;9.77;;
33738;SDS011;20063;51.730;11.110;2023-04-07T11:03:24;17.92;;;9.85;;
33738;SDS011;20063;51.730;11.110;2023-04-07T11:06:07;18.08;;;8.90;;
33738;SDS011;20063;51.730;11.110;2023-04-07T11:11:10;17.55;;;9.63;;
33738;SDS011;20063;51.730;11.110;2023-04-07T11:13:43;22.25;;;10.55;;
33738;SDS011;20063;51.730;11.110;2023-04-07T11:16:11;17.20;;;9.80;;
33738;SDS011;20063;51.730;11.110;2023-04-07T11:18:38;19.83;;;9.15;;
33738;SDS011;20063;51.730;11.110;2023-04-07T11:21:05;19.77;;;10.30;;
33738;SDS011;20063;51.730;11.110;2023-04-07T11:23:40;17.98;;;9.70;;
33738;SDS011;20063;51.730;11.110;2023-04-07T11:26:08;18.02;;;9.68;;
33738;SDS011;20063;51.730;11.110;2023-04-07T11:28:47;18.08;;;9.38;;
33738;SDS011;20063;51.730;11.110;2023-04-07T11:31:23;19.38;;;8.93;;
33738;SDS011;20063;51.730;11.110;2023-04-07T11:33:50;21.15;;;10.05;;
33738;SDS011;20063;51.730;11.110;2023-04-07T11:36:24;21.92;;;10.38;;
33738;SDS011;20063;51.730;11.110;2023-04-07T11:38:55;19.85;;;10.52;;
33738;SDS011;20063;51.730;11.110;2023-04-07T11:41:21;17.98;;;10.32;;
33738;SDS011;20063;51.730;11.110;2023-04-07T11:43:53;27.05;;;10.95;;
33738;SDS011;20063;51.730;11.110;2023-04-07T11:46:28;19.63;;;11.43;;
33738;SDS011;20063;51.730;11.110;2023-04-07T11:48:54;21.50;;;10.85;;
33738;SDS011;20063;51.730;11.110;2023-04-07T11:51:32;20.05;;;10.85;;
33738;SDS011;20063;51.730;11.110;2023-04-07T11:53:57;20.92;;;11.88;;
33738;SDS011;20063;51.730;11.110;2023-04-07T11:56:23;17.88;;;9.38;;
33738;SDS011;20063;51.730;11.110;2023-04-07T11:58:52;18.00;;;10.95;;
33738;SDS011;20063;51.730;11.110;2023-04-07T12:01:19;19.88;;;11.80;;
33738;SDS011;20063;51.730;11.110;2023-04-07T12:04:02;21.73;;;12.20;;
33738;SDS011;20063;51.730;11.110;2023-04-07T12:06:28;21.15;;;12.45;;
33738;SDS011;20063;51.730;11.110;2023-04-07T12:08:58;18.70;;;10.95;;
33738;SDS011;20063;51.730;11.110;2023-04-07T12:11:27;21.73;;;11.38;;
33738;SDS011;20063;51.730;11.110;2023-04-07T12:13:54;17.45;;;10.93;;
33738;SDS011;20063;51.730;11.110;2023-04-07T12:16:20;18.27;;;10.35;;
33738;SDS011;20063;51.730;11.110;2023-04-07T12:18:46;20.60;;;11.45;;
33738;SDS011;20063;51.730;11.110;2023-04-07T12:21:13;21.85;;;11.75;;
33738;SDS011;20063;51.730;11.110;2023-04-07T12:23:38;23.02;;;12.27;;
33738;SDS011;20063;51.730;11.110;2023-04-07T12:26:05;18.10;;;11.20;;
33738;SDS011;20063;51.730;11.110;2023-04-07T12:28:31;19.10;;;11.95;;
33738;SDS011;20063;51.730;11.110;2023-04-07T12:30:56;21.83;;;11.48;;
33738;SDS011;20063;51.730;11.110;2023-04-07T12:33:22;19.95;;;10.90;;
33738;SDS011;20063;51.730;11.110;2023-04-07T12:35:48;19.88;;;10.68;;
33738;SDS011;20063;51.730;11.110;2023-04-07T12:38:14;21.65;;;11.25;;
33738;SDS011;20063;51.730;11.110;2023-04-07T12:40:40;20.25;;;12.10;;
33738;SDS011;20063;51.730;11.110;2023-04-07T12:43:06;24.38;;;12.95;;
33738;SDS011;20063;51.730;11.110;2023-04-07T12:45:31;18.08;;;10.27;;
33738;SDS011;20063;51.730;11.110;2023-04-07T12:47:57;22.05;;;10.88;;
33738;SDS011;20063;51.730;11.110;2023-04-07T12:50:23;16.30;;;10.75;;
33738;SDS011;20063;51.730;11.110;2023-04-07T12:52:51;21.80;;;13.07;;
33738;SDS011;20063;51.730;11.110;2023-04-07T12:55:18;22.45;;;11.52;;
33738;SDS011;20063;51.730;11.110;2023-04-07T12:57:44;16.70;;;10.68;;
33738;SDS011;20063;51.730;11.110;2023-04-07T13:00:12;18.92;;;10.00;;
33738;SDS011;20063;51.730;11.110;2023-04-07T13:02:38;19.38;;;10.80;;
33738;SDS011;20063;51.730;11.110;2023-04-07T13:05:05;19.05;;;10.82;;
33738;SDS011;20063;51.730;11.110;2023-04-07T13:07:31;18.45;;;10.60;;
33738;SDS011;20063;51.730;11.110;2023-04-07T13:09:58;21.40;;;12.35;;
33738;SDS011;20063;51.730;11.110;2023-04-07T13:12:24;19.38;;;10.30;;
33738;SDS011;20063;51.730;11.110;2023-04-07T13:14:50;17.20;;;10.05;;
33738;SDS011;20063;51.730;11.110;2023-04-07T13:17:15;12.82;;;8.38;;
33738;SDS011;20063;51.730;11.110;2023-04-07T13:19:42;17.75;;;9.55;;
33738;SDS011;20063;51.730;11.110;2023-04-07T13:22:14;20.92;;;8.98;;
33738;SDS011;20063;51.730;11.110;2023-04-07T13:24:40;16.52;;;9.18;;
33738;SDS011;20063;51.730;11.110;2023-04-07T13:27:06;17.85;;;10.20;;
33738;SDS011;20063;51.730;11.110;2023-04-07T13:29:32;17.90;;;8.70;;
33738;SDS011;20063;51.730;11.110;2023-04-07T13:32:07;18.90;;;8.95;;
33738;SDS011;20063;51.730;11.110;2023-04-07T13:34:36;15.82;;;9.05;;
33738;SDS011;20063;51.730;11.110;2023-04-07T13:37:03;13.85;;;8.07;;
33738;SDS011;20063;51.730;11.110;2023-04-07T13:39:29;18.63;;;8.30;;
33738;SDS011;20063;51.730;11.110;2023-04-07T13:41:55;18.60;;;8.13;;
33738;SDS011;20063;51.730;11.110;2023-04-07T13:44:22;12.88;;;7.28;;
33738;SDS011;20063;51.730;11.110;2023-04-07T13:46:48;11.65;;;7.15;;
33738;SDS011;20063;51.730;11.110;2023-04-07T13:49:13;11.05;;;7.35;;
33738;SDS011;20063;51.730;11.110;2023-04-07T13:51:39;12.10;;;6.80;;
33738;SDS011;20063;51.730;11.110;2023-04-07T13:54:08;14.52;;;6.80;;
33738;SDS011;20063;51.730;11.110;2023-04-07T13:56:34;14.48;;;8.27;;
33738;SDS011;20063;51.730;11.110;2023-04-07T13:59:02;11.45;;;6.57;;
33738;SDS011;20063;51.730;11.110;2023-04-07T14:01:29;10.90;;;6.60;;
33738;SDS011;20063;51.730;11.110;2023-04-07T14:03:54;10.80;;;6.55;;
33738;SDS011;20063;51.730;11.110;2023-04-07T14:06:21;10.98;;;6.50;;
33738;SDS011;20063;51.730;11.110;2023-04-07T14:08:47;12.38;;;6.70;;
33738;SDS011;20063;51.730;11.110;2023-04-07T14:11:20;13.98;;;5.70;;
33738;SDS011;20063;51.730;11.110;2023-04-07T14:13:46;14.52;;;6.32;;
33738;SDS011;20063;51.730;11.110;2023-04-07T14:16:13;16.67;;;6.45;;
33738;SDS011;20063;51.730;11.110;2023-04-07T14:18:39;11.98;;;5.65;;
33738;SDS011;20063;51.730;11.110;2023-04-07T14:21:04;7.32;;;5.32;;
33738;SDS011;20063;51.730;11.110;2023-04-07T14:23:30;8.35;;;5.40;;
33738;SDS011;20063;51.730;11.110;2023-04-07T14:25:56;13.82;;;5.70;;
33738;SDS011;20063;51.730;11.110;2023-04-07T14:28:22;9.43;;;5.50;;
33738;SDS011;20063;51.730;11.110;2023-04-07T14:30:48;13.00;;;5.88;;
33738;SDS011;20063;51.730;11.110;2023-04-07T14:33:14;10.60;;;6.32;;
33738;SDS011;20063;51.730;11.110;2023-04-07T14:35:41;15.07;;;6.50;;
33738;SDS011;20063;51.730;11.110;2023-04-07T14:38:07;7.93;;;4.70;;
33738;SDS011;20063;51.730;11.110;2023-04-07T14:40:33;10.07;;;6.53;;